sensor_id;sensor_type;location;lat;lon;timestamp;P1;durP1;ratioP1;P2;durP2;ratioP2
3085;SDS011;52812;48.960;9.108;2023-04-24T00:00:12;1.30;;;1.20;;
3085;SDS011;52812;48.960;9.108;2023-04-24T00:02:40;1.73;;;1.40;;
3085;SDS011;52812;48.960;9.108;2023-04-24T00:05:11;1.40;;;1.30;;
3085;SDS011;52812;48.960;9.108;2023-04-24T00:07:40;1.67;;;1.47;;
3085;SDS011;52812;48.960;9.108;2023-04-24T00:10:07;1.60;;;1.40;;
3085;SDS011;52812;48.960;9.108;2023-04-24T00:12:33;2.23;;;1.50;;
3085;SDS011;52812;48.960;9.108;2023-04-24T00:14:59;2.60;;;1.33;;
3085;SDS011;52812;48.960;9.108;2023-04-24T00:17:25;1.53;;;1.43;;
3085;SDS011;52812;48.960;9.108;2023-04-24T00:19:51;2.20;;;1.50;;
3085;SDS011;52812;48.960;9.108;2023-04-24T00:22:23;1.50;;;1.40;;
3085;SDS011;52812;48.960;9.108;2023-04-24T00:24:49;1.87;;;1.37;;
3085;SDS011;52812;48.960;9.108;2023-04-24T00:27:14;1.97;;;1.67;;
3085;SDS011;52812;48.960;9.108;2023-04-24T00:29:40;1.73;;;1.40;;
3085;SDS011;52812;48.960;9.108;2023-04-24T00:32:05;1.40;;;1.30;;
3085;SDS011;52812;48.960;9.108;2023-04-24T00:34:31;1.83;;;1.50;;
3085;SDS011;52812;48.960;9.108;2023-04-24T00:36:57;5.00;;;2.53;;
3085;SDS011;52812;48.960;9.108;2023-04-24T00:39:23;1.40;;;1.30;;
3085;SDS011;52812;48.960;9.108;2023-04-24T00:41:48;1.73;;;1.30;;
3085;SDS011;52812;48.960;9.108;2023-04-24T00:44:15;1.40;;;1.30;;
3085;SDS011;52812;48.960;9.108;2023-04-24T00:46:42;1.83;;;1.50;;
3085;SDS011;52812;48.960;9.108;2023-04-24T00:49:07;1.80;;;1.20;;
3085;SDS011;52812;48.960;9.108;2023-04-24T00:51:33;1.30;;;1.20;;
3085;SDS011;52812;48.960;9.108;2023-04-24T00:54:00;1.63;;;1.50;;
3085;SDS011;52812;48.960;9.108;2023-04-24T00:56:26;1.73;;;1.20;;
3085;SDS011;52812;48.960;9.108;2023-04-24T00:58:52;1.70;;;1.40;;
3085;SDS011;52812;48.960;9.108;2023-04-24T01:01:21;1.73;;;1.40;;
3085;SDS011;52812;48.960;9.108;2023-04-24T01:03:49;2.20;;;1.20;;
3085;SDS011;52812;48.960;9.108;2023-04-24T01:06:16;2.00;;;1.30;;
3085;SDS011;52812;48.960;9.108;2023-04-24T01:08:43;1.60;;;1.37;;
3085;SDS011;52812;48.960;9.108;2023-04-24T01:11:10;1.50;;;1.40;;
3085;SDS011;52812;48.960;9.108;2023-04-24T01:13:36;1.50;;;1.40;;
3085;SDS011;52812;48.960;9.108;2023-04-24T01:16:01;1.40;;;1.30;;
3085;SDS011;52812;48.960;9.108;2023-04-24T01:18:27;1.47;;;1.23;;
3085;SDS011;52812;48.960;9.108;2023-04-24T01:20:54;1.57;;;1.10;;
3085;SDS011;52812;48.960;9.108;2023-04-24T01:23:23;1.40;;;1.30;;
3085;SDS011;52812;48.960;9.108;2023-04-24T01:25:49;1.40;;;1.30;;
3085;SDS011;52812;48.960;9.108;2023-04-24T01:28:16;1.23;;;1.13;;
3085;SDS011;52812;48.960;9.108;2023-04-24T01:30:42;1.20;;;1.10;;
3085;SDS011;52812;48.960;9.108;2023-04-24T01:33:07;1.53;;;1.20;;
3085;SDS011;52812;48.960;9.108;2023-04-24T01:35:33;1.40;;;1.30;;
3085;SDS011;52812;48.960;9.108;2023-04-24T01:38:01;1.60;;;1.23;;
3085;SDS011;52812;48.960;9.108;2023-04-24T01:40:27;1.43;;;1.20;;
3085;SDS011;52812;48.960;9.108;2023-04-24T01:42:52;1.20;;;1.10;;
3085;SDS011;52812;48.960;9.108;2023-04-24T01:45:18;2.33;;;1.10;;
3085;SDS011;52812;48.960;9.108;2023-04-24T01:47:44;1.50;;;1.40;;
3085;SDS011;52812;48.960;9.108;2023-04-24T01:50:11;1.40;;;1.30;;
3085;SDS011;52812;48.960;9.108;2023-04-24T01:52:36;1.90;;;1.40;;
3085;SDS011;52812;48.960;9.108;2023-04-24T01:55:03;1.43;;;1.27;;
3085;SDS011;52812;48.960;9.108;2023-04-24T01:57:30;1.40;;;1.30;;
3085;SDS011;52812;48.960;9.108;2023-04-24T01:59:56;1.73;;;1.30;;
3085;SDS011;52812;48.960;9.108;2023-04-24T02:02:22;1.37;;;1.23;;
3085;SDS011;52812;48.960;9.108;2023-04-24T02:04:49;1.40;;;1.30;;
3085;SDS011;52812;48.960;9.108;2023-04-24T02:07:15;2.17;;;1.40;;
3085;SDS011;52812;48.960;9.108;2023-04-24T02:09:44;1.30;;;1.20;;
3085;SDS011;52812;48.960;9.108;2023-04-24T02:12:09;2.90;;;1.47;;
3085;SDS011;52812;48.960;9.108;2023-04-24T02:14:35;1.87;;;1.30;;
3085;SDS011;52812;48.960;9.108;2023-04-24T02:17:01;2.20;;;1.47;;
3085;SDS011;52812;48.960;9.108;2023-04-24T02:19:26;1.50;;;1.20;;
3085;SDS011;52812;48.960;9.108;2023-04-24T02:21:52;1.47;;;1.30;;
3085;SDS011;52812;48.960;9.108;2023-04-24T02:24:17;2.60;;;1.23;;
3085;SDS011;52812;48.960;9.108;2023-04-24T02:26:43;1.20;;;1.10;;
3085;SDS011;52812;48.960;9.108;2023-04-24T02:29:09;1.63;;;1.20;;
3085;SDS011;52812;48.960;9.108;2023-04-24T02:31:34;2.00;;;1.30;;
3085;SDS011;52812;48.960;9.108;2023-04-24T02:34:00;1.40;;;1.30;;
3085;SDS011;52812;48.960;9.108;2023-04-24T02:36:26;1.30;;;1.20;;
3085;SDS011;52812;48.960;9.108;2023-04-24T02:38:51;3.40;;;1.97;;
3085;SDS011;52812;48.960;9.108;2023-04-24T02:41:17;1.90;;;1.33;;
3085;SDS011;52812;48.960;9.108;2023-04-24T02:43:43;1.47;;;1.30;;
3085;SDS011;52812;48.960;9.108;2023-04-24T02:46:08;2.13;;;1.70;;
3085;SDS011;52812;48.960;9.108;2023-04-24T02:48:34;2.03;;;1.23;;
3085;SDS011;52812;48.960;9.108;2023-04-24T02:50:59;1.30;;;1.20;;
3085;SDS011;52812;48.960;9.108;2023-04-24T02:53:25;2.80;;;1.50;;
3085;SDS011;52812;48.960;9.108;2023-04-24T02:55:51;1.93;;;1.40;;
3085;SDS011;52812;48.960;9.108;2023-04-24T02:58:16;3.47;;;1.30;;
3085;SDS011;52812;48.960;9.108;2023-04-24T03:00:44;1.43;;;1.20;;
3085;SDS011;52812;48.960;9.108;2023-04-24T03:03:10;1.40;;;1.30;;
3085;SDS011;52812;48.960;9.108;2023-04-24T03:05:36;1.77;;;1.40;;
3085;SDS011;52812;48.960;9.108;2023-04-24T03:08:02;1.23;;;1.13;;
3085;SDS011;52812;48.960;9.108;2023-04-24T03:10:27;1.40;;;1.30;;
3085;SDS011;52812;48.960;9.108;2023-04-24T03:12:53;1.43;;;1.33;;
3085;SDS011;52812;48.960;9.108;2023-04-24T03:15:19;1.40;;;1.30;;
3085;SDS011;52812;48.960;9.108;2023-04-24T03:17:45;1.40;;;1.30;;
3085;SDS011;52812;48.960;9.108;2023-04-24T03:20:11;1.70;;;1.50;;
3085;SDS011;52812;48.960;9.108;2023-04-24T03:22:37;1.20;;;1.10;;
3085;SDS011;52812;48.960;9.108;2023-04-24T03:25:02;2.33;;;1.50;;
3085;SDS011;52812;48.960;9.108;2023-04-24T03:27:29;1.60;;;1.47;;
3085;SDS011;52812;48.960;9.108;2023-04-24T03:29:55;1.63;;;1.37;;
3085;SDS011;52812;48.960;9.108;2023-04-24T03:32:21;2.43;;;1.40;;
3085;SDS011;52812;48.960;9.108;2023-04-24T03:34:47;1.70;;;1.30;;
3085;SDS011;52812;48.960;9.108;2023-04-24T03:37:14;1.70;;;1.60;;
3085;SDS011;52812;48.960;9.108;2023-04-24T03:39:40;1.30;;;1.20;;
3085;SDS011;52812;48.960;9.108;2023-04-24T03:42:05;1.30;;;1.20;;
3085;SDS011;52812;48.960;9.108;2023-04-24T03:44:31;2.27;;;1.30;;
3085;SDS011;52812;48.960;9.108;2023-04-24T03:46:57;1.57;;;1.47;;
3085;SDS011;52812;48.960;9.108;2023-04-24T03:49:23;1.40;;;1.30;;
3085;SDS011;52812;48.960;9.108;2023-04-24T03:51:49;2.80;;;1.50;;
3085;SDS011;52812;48.960;9.108;2023-04-24T03:54:14;2.03;;;1.40;;
3085;SDS011;52812;48.960;9.108;2023-04-24T03:56:40;1.50;;;1.40;;
3085;SDS011;52812;48.960;9.108;2023-04-24T03:59:05;2.20;;;1.30;;
3085;SDS011;52812;48.960;9.108;2023-04-24T04:01:31;1.50;;;1.40;;
3085;SDS011;52812;48.960;9.108;2023-04-24T04:03:57;1.53;;;1.30;;
3085;SDS011;52812;48.960;9.108;2023-04-24T04:06:22;1.77;;;1.40;;
3085;SDS011;52812;48.960;9.108;2023-04-24T04:08:48;2.60;;;1.30;;
3085;SDS011;52812;48.960;9.108;2023-04-24T04:11:13;1.63;;;1.50;;
3085;SDS011;52812;48.960;9.108;2023-04-24T04:13:39;1.57;;;1.47;;
3085;SDS011;52812;48.960;9.108;2023-04-24T04:16:05;3.20;;;1.37;;
3085;SDS011;52812;48.960;9.108;2023-04-24T04:18:31;1.53;;;1.43;;
3085;SDS011;52812;48.960;9.108;2023-04-24T04:20:56;2.83;;;1.40;;
3085;SDS011;52812;48.960;9.108;2023-04-24T04:23:22;1.80;;;1.70;;
3085;SDS011;52812;48.960;9.108;2023-04-24T04:25:48;1.50;;;1.40;;
3085;SDS011;52812;48.960;9.108;2023-04-24T04:28:14;1.80;;;1.70;;
3085;SDS011;52812;48.960;9.108;2023-04-24T04:30:40;2.93;;;1.77;;
3085;SDS011;52812;48.960;9.108;2023-04-24T04:33:06;1.70;;;1.47;;
3085;SDS011;52812;48.960;9.108;2023-04-24T04:35:33;1.63;;;1.53;;
3085;SDS011;52812;48.960;9.108;2023-04-24T04:37:58;3.60;;;1.53;;
3085;SDS011;52812;48.960;9.108;2023-04-24T04:40:24;1.70;;;1.60;;
3085;SDS011;52812;48.960;9.108;2023-04-24T04:42:50;2.83;;;1.63;;
3085;SDS011;52812;48.960;9.108;2023-04-24T04:45:17;1.87;;;1.73;;
3085;SDS011;52812;48.960;9.108;2023-04-24T04:47:43;2.20;;;1.80;;
3085;SDS011;52812;48.960;9.108;2023-04-24T04:50:09;1.70;;;1.60;;
3085;SDS011;52812;48.960;9.108;2023-04-24T04:52:35;3.23;;;2.00;;
3085;SDS011;52812;48.960;9.108;2023-04-24T04:55:01;1.97;;;1.57;;
3085;SDS011;52812;48.960;9.108;2023-04-24T04:57:27;2.10;;;1.77;;
3085;SDS011;52812;48.960;9.108;2023-04-24T04:59:52;2.00;;;1.80;;
3085;SDS011;52812;48.960;9.108;2023-04-24T05:02:18;2.00;;;1.80;;
3085;SDS011;52812;48.960;9.108;2023-04-24T05:04:44;2.50;;;2.13;;
3085;SDS011;52812;48.960;9.108;2023-04-24T05:07:10;2.37;;;2.17;;
3085;SDS011;52812;48.960;9.108;2023-04-24T05:09:36;2.37;;;1.90;;
3085;SDS011;52812;48.960;9.108;2023-04-24T05:12:01;2.17;;;1.97;;
3085;SDS011;52812;48.960;9.108;2023-04-24T05:14:27;2.90;;;2.17;;
3085;SDS011;52812;48.960;9.108;2023-04-24T05:16:52;3.70;;;2.70;;
3085;SDS011;52812;48.960;9.108;2023-04-24T05:19:18;2.90;;;2.50;;
3085;SDS011;52812;48.960;9.108;2023-04-24T05:21:43;3.50;;;2.60;;
3085;SDS011;52812;48.960;9.108;2023-04-24T05:24:09;3.40;;;2.30;;
3085;SDS011;52812;48.960;9.108;2023-04-24T05:26:35;2.40;;;2.10;;
3085;SDS011;52812;48.960;9.108;2023-04-24T05:29:00;2.37;;;2.00;;
3085;SDS011;52812;48.960;9.108;2023-04-24T05:31:27;2.33;;;2.13;;
3085;SDS011;52812;48.960;9.108;2023-04-24T05:33:52;2.43;;;2.23;;
3085;SDS011;52812;48.960;9.108;2023-04-24T05:36:18;4.83;;;2.40;;
3085;SDS011;52812;48.960;9.108;2023-04-24T05:38:43;3.20;;;2.90;;
3085;SDS011;52812;48.960;9.108;2023-04-24T05:41:09;4.30;;;3.07;;
3085;SDS011;52812;48.960;9.108;2023-04-24T05:43:35;3.13;;;2.73;;
3085;SDS011;52812;48.960;9.108;2023-04-24T05:46:00;5.70;;;2.93;;
3085;SDS011;52812;48.960;9.108;2023-04-24T05:48:26;3.47;;;2.70;;
3085;SDS011;52812;48.960;9.108;2023-04-24T05:50:51;3.63;;;2.90;;
3085;SDS011;52812;48.960;9.108;2023-04-24T05:53:17;3.00;;;2.57;;
3085;SDS011;52812;48.960;9.108;2023-04-24T05:55:43;3.10;;;2.40;;
3085;SDS011;52812;48.960;9.108;2023-04-24T05:58:09;2.70;;;2.27;;
3085;SDS011;52812;48.960;9.108;2023-04-24T06:00:35;2.70;;;2.20;;
3085;SDS011;52812;48.960;9.108;2023-04-24T06:03:01;2.70;;;2.20;;
3085;SDS011;52812;48.960;9.108;2023-04-24T06:05:28;3.27;;;2.30;;
3085;SDS011;52812;48.960;9.108;2023-04-24T06:07:54;3.10;;;2.43;;
3085;SDS011;52812;48.960;9.108;2023-04-24T06:10:20;3.27;;;2.60;;
3085;SDS011;52812;48.960;9.108;2023-04-24T06:12:46;2.80;;;2.60;;
3085;SDS011;52812;48.960;9.108;2023-04-24T06:15:11;2.90;;;2.60;;
3085;SDS011;52812;48.960;9.108;2023-04-24T06:17:37;3.90;;;2.27;;
3085;SDS011;52812;48.960;9.108;2023-04-24T06:20:03;3.63;;;2.30;;
3085;SDS011;52812;48.960;9.108;2023-04-24T06:22:31;2.27;;;2.07;;
3085;SDS011;52812;48.960;9.108;2023-04-24T06:24:56;2.47;;;1.90;;
3085;SDS011;52812;48.960;9.108;2023-04-24T06:27:22;2.40;;;1.97;;
3085;SDS011;52812;48.960;9.108;2023-04-24T06:29:48;2.20;;;2.00;;
3085;SDS011;52812;48.960;9.108;2023-04-24T06:32:19;2.10;;;1.90;;
3085;SDS011;52812;48.960;9.108;2023-04-24T06:34:48;3.30;;;2.40;;
3085;SDS011;52812;48.960;9.108;2023-04-24T06:37:14;2.40;;;2.13;;
3085;SDS011;52812;48.960;9.108;2023-04-24T06:39:41;3.20;;;2.50;;
3085;SDS011;52812;48.960;9.108;2023-04-24T06:42:06;2.47;;;2.27;;
3085;SDS011;52812;48.960;9.108;2023-04-24T06:44:34;2.40;;;2.20;;
3085;SDS011;52812;48.960;9.108;2023-04-24T06:47:05;2.50;;;2.30;;
3085;SDS011;52812;48.960;9.108;2023-04-24T06:49:35;2.30;;;2.10;;
3085;SDS011;52812;48.960;9.108;2023-04-24T06:52:02;2.93;;;2.27;;
3085;SDS011;52812;48.960;9.108;2023-04-24T06:54:27;3.47;;;2.27;;
3085;SDS011;52812;48.960;9.108;2023-04-24T06:56:54;2.33;;;1.97;;
3085;SDS011;52812;48.960;9.108;2023-04-24T06:59:20;3.70;;;2.20;;
3085;SDS011;52812;48.960;9.108;2023-04-24T07:01:45;2.20;;;2.00;;
3085;SDS011;52812;48.960;9.108;2023-04-24T07:04:11;3.13;;;2.20;;
3085;SDS011;52812;48.960;9.108;2023-04-24T07:06:37;4.10;;;2.17;;
3085;SDS011;52812;48.960;9.108;2023-04-24T07:09:04;3.27;;;2.10;;
3085;SDS011;52812;48.960;9.108;2023-04-24T07:11:29;3.13;;;2.07;;
3085;SDS011;52812;48.960;9.108;2023-04-24T07:13:57;2.30;;;2.10;;
3085;SDS011;52812;48.960;9.108;2023-04-24T07:16:23;3.30;;;2.47;;
3085;SDS011;52812;48.960;9.108;2023-04-24T07:18:48;2.90;;;2.60;;
3085;SDS011;52812;48.960;9.108;2023-04-24T07:21:14;3.00;;;2.40;;
3085;SDS011;52812;48.960;9.108;2023-04-24T07:23:40;3.07;;;2.10;;
3085;SDS011;52812;48.960;9.108;2023-04-24T07:26:06;2.23;;;2.03;;
3085;SDS011;52812;48.960;9.108;2023-04-24T07:28:32;3.50;;;1.97;;
3085;SDS011;52812;48.960;9.108;2023-04-24T07:30:57;3.00;;;2.20;;
3085;SDS011;52812;48.960;9.108;2023-04-24T07:33:24;2.47;;;2.27;;
3085;SDS011;52812;48.960;9.108;2023-04-24T07:35:50;2.60;;;2.40;;
3085;SDS011;52812;48.960;9.108;2023-04-24T07:38:16;2.50;;;1.90;;
3085;SDS011;52812;48.960;9.108;2023-04-24T07:40:45;2.47;;;1.90;;
3085;SDS011;52812;48.960;9.108;2023-04-24T07:43:10;2.93;;;2.20;;
3085;SDS011;52812;48.960;9.108;2023-04-24T07:45:36;2.40;;;2.20;;
3085;SDS011;52812;48.960;9.108;2023-04-24T07:48:02;2.90;;;2.30;;
3085;SDS011;52812;48.960;9.108;2023-04-24T07:50:28;3.00;;;2.27;;
3085;SDS011;52812;48.960;9.108;2023-04-24T07:52:53;3.03;;;2.10;;
3085;SDS011;52812;48.960;9.108;2023-04-24T07:55:19;2.43;;;2.10;;
3085;SDS011;52812;48.960;9.108;2023-04-24T07:57:45;4.27;;;2.20;;
3085;SDS011;52812;48.960;9.108;2023-04-24T08:00:11;2.80;;;2.20;;
3085;SDS011;52812;48.960;9.108;2023-04-24T08:02:36;2.77;;;2.30;;
3085;SDS011;52812;48.960;9.108;2023-04-24T08:05:02;3.40;;;2.20;;
3085;SDS011;52812;48.960;9.108;2023-04-24T08:07:28;3.70;;;2.30;;
3085;SDS011;52812;48.960;9.108;2023-04-24T08:09:54;1.90;;;1.80;;
3085;SDS011;52812;48.960;9.108;2023-04-24T08:12:19;2.67;;;1.90;;
3085;SDS011;52812;48.960;9.108;2023-04-24T08:14:45;2.30;;;1.80;;
3085;SDS011;52812;48.960;9.108;2023-04-24T08:17:11;1.87;;;1.70;;
3085;SDS011;52812;48.960;9.108;2023-04-24T08:19:36;4.43;;;2.10;;
3085;SDS011;52812;48.960;9.108;2023-04-24T08:22:02;2.17;;;1.73;;
3085;SDS011;52812;48.960;9.108;2023-04-24T08:24:29;5.40;;;2.40;;
3085;SDS011;52812;48.960;9.108;2023-04-24T08:26:54;4.07;;;2.10;;
3085;SDS011;52812;48.960;9.108;2023-04-24T08:29:21;2.47;;;2.27;;
3085;SDS011;52812;48.960;9.108;2023-04-24T08:31:47;1.77;;;1.60;;
3085;SDS011;52812;48.960;9.108;2023-04-24T08:34:12;5.00;;;2.17;;
3085;SDS011;52812;48.960;9.108;2023-04-24T08:36:38;2.20;;;1.83;;
3085;SDS011;52812;48.960;9.108;2023-04-24T08:39:05;2.23;;;2.03;;
3085;SDS011;52812;48.960;9.108;2023-04-24T08:41:31;3.07;;;2.10;;
3085;SDS011;52812;48.960;9.108;2023-04-24T08:43:59;2.27;;;1.60;;
3085;SDS011;52812;48.960;9.108;2023-04-24T08:46:26;1.87;;;1.60;;
3085;SDS011;52812;48.960;9.108;2023-04-24T08:48:52;3.80;;;2.17;;
3085;SDS011;52812;48.960;9.108;2023-04-24T08:51:18;2.03;;;1.73;;
3085;SDS011;52812;48.960;9.108;2023-04-24T08:53:45;2.43;;;2.10;;
3085;SDS011;52812;48.960;9.108;2023-04-24T08:56:11;2.13;;;1.90;;
3085;SDS011;52812;48.960;9.108;2023-04-24T08:58:38;1.97;;;1.67;;
3085;SDS011;52812;48.960;9.108;2023-04-24T09:01:04;2.93;;;2.00;;
3085;SDS011;52812;48.960;9.108;2023-04-24T09:03:30;2.07;;;1.80;;
3085;SDS011;52812;48.960;9.108;2023-04-24T09:05:57;3.67;;;2.00;;
3085;SDS011;52812;48.960;9.108;2023-04-24T09:08:25;4.00;;;2.17;;
3085;SDS011;52812;48.960;9.108;2023-04-24T09:10:52;1.90;;;1.80;;
3085;SDS011;52812;48.960;9.108;2023-04-24T09:13:18;2.03;;;1.83;;
3085;SDS011;52812;48.960;9.108;2023-04-24T09:15:45;4.70;;;2.10;;
3085;SDS011;52812;48.960;9.108;2023-04-24T09:18:11;2.73;;;1.90;;
3085;SDS011;52812;48.960;9.108;2023-04-24T09:20:56;2.20;;;1.90;;
3085;SDS011;52812;48.960;9.108;2023-04-24T09:23:22;3.27;;;1.80;;
3085;SDS011;52812;48.960;9.108;2023-04-24T09:25:53;2.77;;;1.60;;
3085;SDS011;52812;48.960;9.108;2023-04-24T09:28:22;1.70;;;1.60;;
3085;SDS011;52812;48.960;9.108;2023-04-24T09:31:05;2.33;;;1.80;;
3085;SDS011;52812;48.960;9.108;2023-04-24T09:33:32;1.90;;;1.70;;
3085;SDS011;52812;48.960;9.108;2023-04-24T09:35:58;3.10;;;2.10;;
3085;SDS011;52812;48.960;9.108;2023-04-24T09:38:30;2.43;;;1.90;;
3085;SDS011;52812;48.960;9.108;2023-04-24T09:41:04;2.70;;;1.73;;
3085;SDS011;52812;48.960;9.108;2023-04-24T09:43:31;2.23;;;2.03;;
3085;SDS011;52812;48.960;9.108;2023-04-24T09:45:57;1.90;;;1.80;;
3085;SDS011;52812;48.960;9.108;2023-04-24T09:48:33;3.23;;;2.10;;
3085;SDS011;52812;48.960;9.108;2023-04-24T09:51:01;2.87;;;2.20;;
3085;SDS011;52812;48.960;9.108;2023-04-24T09:53:29;2.10;;;1.90;;
3085;SDS011;52812;48.960;9.108;2023-04-24T09:55:55;2.50;;;1.90;;
3085;SDS011;52812;48.960;9.108;2023-04-24T09:58:27;1.87;;;1.70;;
3085;SDS011;52812;48.960;9.108;2023-04-24T10:00:55;2.60;;;1.90;;
3085;SDS011;52812;48.960;9.108;2023-04-24T10:03:25;3.93;;;1.90;;
3085;SDS011;52812;48.960;9.108;2023-04-24T10:05:52;1.90;;;1.73;;
3085;SDS011;52812;48.960;9.108;2023-04-24T10:08:18;3.30;;;1.97;;
3085;SDS011;52812;48.960;9.108;2023-04-24T10:10:45;2.47;;;1.60;;
3085;SDS011;52812;48.960;9.108;2023-04-24T10:13:12;3.13;;;2.00;;
3085;SDS011;52812;48.960;9.108;2023-04-24T10:15:40;2.57;;;2.13;;
3085;SDS011;52812;48.960;9.108;2023-04-24T10:18:07;2.23;;;2.00;;
3085;SDS011;52812;48.960;9.108;2023-04-24T10:20:34;2.37;;;2.03;;
3085;SDS011;52812;48.960;9.108;2023-04-24T10:23:01;3.83;;;2.13;;
3085;SDS011;52812;48.960;9.108;2023-04-24T10:25:28;4.40;;;2.07;;
3085;SDS011;52812;48.960;9.108;2023-04-24T10:27:56;2.50;;;2.30;;
3085;SDS011;52812;48.960;9.108;2023-04-24T10:30:25;2.00;;;1.90;;
3085;SDS011;52812;48.960;9.108;2023-04-24T10:32:54;3.20;;;2.40;;
3085;SDS011;52812;48.960;9.108;2023-04-24T10:35:21;3.70;;;2.40;;
3085;SDS011;52812;48.960;9.108;2023-04-24T10:37:50;2.97;;;2.67;;
3085;SDS011;52812;48.960;9.108;2023-04-24T10:40:25;2.40;;;2.20;;
3085;SDS011;52812;48.960;9.108;2023-04-24T10:43:04;2.50;;;2.30;;
3085;SDS011;52812;48.960;9.108;2023-04-24T10:45:32;3.40;;;2.57;;
3085;SDS011;52812;48.960;9.108;2023-04-24T10:48:02;3.30;;;2.23;;
3085;SDS011;52812;48.960;9.108;2023-04-24T10:50:43;2.80;;;2.33;;
3085;SDS011;52812;48.960;9.108;2023-04-24T10:53:19;2.40;;;2.20;;
3085;SDS011;52812;48.960;9.108;2023-04-24T10:58:23;2.60;;;2.00;;
3085;SDS011;52812;48.960;9.108;2023-04-24T11:01:00;2.73;;;2.23;;
3085;SDS011;52812;48.960;9.108;2023-04-24T11:03:29;5.37;;;2.30;;
3085;SDS011;52812;48.960;9.108;2023-04-24T11:08:43;3.10;;;2.40;;
3085;SDS011;52812;48.960;9.108;2023-04-24T11:11:11;2.30;;;2.10;;
3085;SDS011;52812;48.960;9.108;2023-04-24T11:21:54;2.83;;;2.40;;
3085;SDS011;52812;48.960;9.108;2023-04-24T11:24:49;2.97;;;2.33;;
3085;SDS011;52812;48.960;9.108;2023-04-24T11:27:19;3.60;;;2.77;;
3085;SDS011;52812;48.960;9.108;2023-04-24T11:35:13;3.43;;;2.60;;
3085;SDS011;52812;48.960;9.108;2023-04-24T11:37:39;11.37;;;2.53;;
3085;SDS011;52812;48.960;9.108;2023-04-24T11:40:07;3.23;;;2.30;;
3085;SDS011;52812;48.960;9.108;2023-04-24T11:42:44;2.93;;;2.60;;
3085;SDS011;52812;48.960;9.108;2023-04-24T11:45:11;2.80;;;2.23;;
3085;SDS011;52812;48.960;9.108;2023-04-24T11:47:42;4.57;;;2.20;;
3085;SDS011;52812;48.960;9.108;2023-04-24T11:50:11;2.10;;;1.90;;
3085;SDS011;52812;48.960;9.108;2023-04-24T11:52:38;3.00;;;2.60;;
3085;SDS011;52812;48.960;9.108;2023-04-24T11:55:22;2.43;;;2.20;;
3085;SDS011;52812;48.960;9.108;2023-04-24T11:57:52;2.90;;;2.37;;
3085;SDS011;52812;48.960;9.108;2023-04-24T12:00:25;5.63;;;2.80;;
3085;SDS011;52812;48.960;9.108;2023-04-24T12:03:02;3.00;;;2.63;;
3085;SDS011;52812;48.960;9.108;2023-04-24T12:05:32;3.50;;;2.83;;
3085;SDS011;52812;48.960;9.108;2023-04-24T12:08:01;3.17;;;2.87;;
3085;SDS011;52812;48.960;9.108;2023-04-24T12:10:28;3.03;;;2.60;;
3085;SDS011;52812;48.960;9.108;2023-04-24T12:12:55;3.50;;;3.20;;
3085;SDS011;52812;48.960;9.108;2023-04-24T12:15:22;3.27;;;2.63;;
3085;SDS011;52812;48.960;9.108;2023-04-24T12:17:50;3.37;;;2.50;;
3085;SDS011;52812;48.960;9.108;2023-04-24T12:20:17;3.17;;;2.70;;
3085;SDS011;52812;48.960;9.108;2023-04-24T12:25:24;2.93;;;2.47;;
3085;SDS011;52812;48.960;9.108;2023-04-24T12:27:55;3.83;;;2.33;;
3085;SDS011;52812;48.960;9.108;2023-04-24T12:30:41;2.57;;;2.20;;
3085;SDS011;52812;48.960;9.108;2023-04-24T12:33:22;3.00;;;2.70;;
3085;SDS011;52812;48.960;9.108;2023-04-24T12:35:48;3.97;;;3.00;;
3085;SDS011;52812;48.960;9.108;2023-04-24T12:38:21;3.73;;;2.67;;
3085;SDS011;52812;48.960;9.108;2023-04-24T12:41:00;4.00;;;3.27;;
3085;SDS011;52812;48.960;9.108;2023-04-24T12:43:33;3.33;;;2.70;;
3085;SDS011;52812;48.960;9.108;2023-04-24T12:46:00;3.73;;;2.73;;
3085;SDS011;52812;48.960;9.108;2023-04-24T12:48:26;4.17;;;2.67;;
3085;SDS011;52812;48.960;9.108;2023-04-24T12:50:52;4.47;;;3.17;;
3085;SDS011;52812;48.960;9.108;2023-04-24T12:53:18;3.53;;;3.20;;
3085;SDS011;52812;48.960;9.108;2023-04-24T12:55:44;4.17;;;3.13;;
3085;SDS011;52812;48.960;9.108;2023-04-24T12:58:11;5.57;;;3.20;;
3085;SDS011;52812;48.960;9.108;2023-04-24T13:00:38;3.27;;;2.77;;
3085;SDS011;52812;48.960;9.108;2023-04-24T13:03:04;4.23;;;3.23;;
3085;SDS011;52812;48.960;9.108;2023-04-24T13:05:29;3.20;;;2.80;;
3085;SDS011;52812;48.960;9.108;2023-04-24T13:07:56;3.80;;;3.00;;
3085;SDS011;52812;48.960;9.108;2023-04-24T13:10:22;4.10;;;3.37;;
3085;SDS011;52812;48.960;9.108;2023-04-24T13:12:48;4.30;;;3.27;;
3085;SDS011;52812;48.960;9.108;2023-04-24T13:15:14;4.73;;;3.60;;
3085;SDS011;52812;48.960;9.108;2023-04-24T13:17:40;4.40;;;3.23;;
3085;SDS011;52812;48.960;9.108;2023-04-24T13:20:05;4.27;;;3.10;;
3085;SDS011;52812;48.960;9.108;2023-04-24T13:22:31;3.93;;;3.03;;
3085;SDS011;52812;48.960;9.108;2023-04-24T13:24:57;4.00;;;3.17;;
3085;SDS011;52812;48.960;9.108;2023-04-24T13:27:23;3.73;;;2.97;;
3085;SDS011;52812;48.960;9.108;2023-04-24T13:29:48;3.53;;;3.17;;
3085;SDS011;52812;48.960;9.108;2023-04-24T13:32:14;5.83;;;2.80;;
3085;SDS011;52812;48.960;9.108;2023-04-24T13:34:40;4.10;;;2.80;;
3085;SDS011;52812;48.960;9.108;2023-04-24T13:37:06;5.10;;;3.53;;
3085;SDS011;52812;48.960;9.108;2023-04-24T13:39:33;5.23;;;3.47;;
3085;SDS011;52812;48.960;9.108;2023-04-24T13:41:58;6.07;;;3.80;;
3085;SDS011;52812;48.960;9.108;2023-04-24T13:44:24;5.20;;;3.30;;
3085;SDS011;52812;48.960;9.108;2023-04-24T13:46:51;3.20;;;2.90;;
3085;SDS011;52812;48.960;9.108;2023-04-24T13:49:19;4.50;;;3.47;;
3085;SDS011;52812;48.960;9.108;2023-04-24T13:51:46;3.67;;;3.00;;
3085;SDS011;52812;48.960;9.108;2023-04-24T13:54:12;3.20;;;2.90;;
3085;SDS011;52812;48.960;9.108;2023-04-24T13:56:38;5.20;;;3.30;;
3085;SDS011;52812;48.960;9.108;2023-04-24T13:59:05;4.43;;;3.30;;
3085;SDS011;52812;48.960;9.108;2023-04-24T14:01:31;4.13;;;3.17;;
3085;SDS011;52812;48.960;9.108;2023-04-24T14:03:57;3.80;;;3.20;;
3085;SDS011;52812;48.960;9.108;2023-04-24T14:06:22;3.30;;;2.90;;
3085;SDS011;52812;48.960;9.108;2023-04-24T14:08:49;4.23;;;2.80;;
3085;SDS011;52812;48.960;9.108;2023-04-24T14:11:15;4.23;;;3.00;;
3085;SDS011;52812;48.960;9.108;2023-04-24T14:13:41;4.63;;;3.00;;
3085;SDS011;52812;48.960;9.108;2023-04-24T14:16:08;3.97;;;3.40;;
3085;SDS011;52812;48.960;9.108;2023-04-24T14:18:34;3.67;;;2.93;;
3085;SDS011;52812;48.960;9.108;2023-04-24T14:21:01;4.37;;;3.97;;
3085;SDS011;52812;48.960;9.108;2023-04-24T14:23:27;5.10;;;3.40;;
3085;SDS011;52812;48.960;9.108;2023-04-24T14:25:53;3.40;;;3.10;;
3085;SDS011;52812;48.960;9.108;2023-04-24T14:28:19;4.57;;;3.30;;
3085;SDS011;52812;48.960;9.108;2023-04-24T14:30:45;3.80;;;3.40;;
3085;SDS011;52812;48.960;9.108;2023-04-24T14:33:11;3.97;;;3.57;;
3085;SDS011;52812;48.960;9.108;2023-04-24T14:35:38;4.83;;;3.47;;
3085;SDS011;52812;48.960;9.108;2023-04-24T14:38:04;3.40;;;3.10;;
3085;SDS011;52812;48.960;9.108;2023-04-24T14:40:30;5.53;;;3.20;;
3085;SDS011;52812;48.960;9.108;2023-04-24T14:42:57;3.77;;;2.90;;
3085;SDS011;52812;48.960;9.108;2023-04-24T14:45:24;4.13;;;3.20;;
3085;SDS011;52812;48.960;9.108;2023-04-24T14:47:50;4.40;;;3.20;;
3085;SDS011;52812;48.960;9.108;2023-04-24T14:50:15;3.10;;;2.80;;
3085;SDS011;52812;48.960;9.108;2023-04-24T14:52:41;3.07;;;2.77;;
3085;SDS011;52812;48.960;9.108;2023-04-24T14:55:07;4.07;;;2.90;;
3085;SDS011;52812;48.960;9.108;2023-04-24T14:57:33;3.40;;;2.87;;
3085;SDS011;52812;48.960;9.108;2023-04-24T15:00:00;3.13;;;2.83;;
3085;SDS011;52812;48.960;9.108;2023-04-24T15:02:28;3.13;;;2.83;;
3085;SDS011;52812;48.960;9.108;2023-04-24T15:04:53;3.47;;;3.10;;
3085;SDS011;52812;48.960;9.108;2023-04-24T15:07:20;3.10;;;2.70;;
3085;SDS011;52812;48.960;9.108;2023-04-24T15:09:46;3.13;;;2.67;;
3085;SDS011;52812;48.960;9.108;2023-04-24T15:12:12;3.60;;;2.50;;
3085;SDS011;52812;48.960;9.108;2023-04-24T15:14:38;4.23;;;2.70;;
3085;SDS011;52812;48.960;9.108;2023-04-24T15:17:04;4.10;;;2.90;;
3085;SDS011;52812;48.960;9.108;2023-04-24T15:19:30;3.33;;;2.90;;